createdAt,value
2017-03-12T00:00:43.863Z,78.05
2017-03-12T00:01:54.168Z,77.96
2017-03-12T00:03:04.499Z,77.67
2017-03-12T00:04:14.826Z,77.58
2017-03-12T00:05:25.199Z,77.96
2017-03-12T00:06:35.329Z,77.86
2017-03-12T00:07:45.600Z,77.86
2017-03-12T00:08:55.906Z,77.86
2017-03-12T00:10:06.239Z,77.77
2017-03-12T00:11:16.591Z,77.86
2017-03-12T00:12:26.804Z,77.86
2017-03-12T00:13:37.120Z,77.86
2017-03-12T00:14:47.441Z,77.86
2017-03-12T00:15:57.405Z,77.96
2017-03-12T00:17:07.680Z,78.15
2017-03-12T00:18:18.295Z,78.15
2017-03-12T00:19:28.609Z,77.58
2017-03-12T00:20:39.118Z,77.86
2017-03-12T00:21:49.531Z,77.77
2017-03-12T00:22:59.983Z,77.86
2017-03-12T00:24:10.604Z,78.05
2017-03-12T00:25:20.970Z,77.86
2017-03-12T00:26:31.262Z,78.62
2017-03-12T00:27:41.557Z,78.34
2017-03-12T00:28:51.874Z,78.34
2017-03-12T00:30:02.014Z,78.34
2017-03-12T00:31:12.306Z,78.15
2017-03-12T00:32:22.616Z,77.96
2017-03-12T00:33:32.919Z,78.15
2017-03-12T00:34:43.309Z,78.43
2017-03-12T00:35:53.436Z,78.72
2017-03-12T00:37:03.751Z,78.24
2017-03-12T00:38:14.031Z,78.34
2017-03-12T00:39:24.398Z,78.15
2017-03-12T00:40:34.687Z,78.24
2017-03-12T00:41:45.255Z,78.62
2017-03-12T00:42:55.621Z,78.53
2017-03-12T00:44:05.495Z,78.53
2017-03-12T00:45:15.466Z,78.53
2017-03-12T00:46:25.760Z,78.81
2017-03-12T00:47:35.940Z,78.96
2017-03-12T00:48:46.262Z,78.96
2017-03-12T00:49:56.568Z,78.96
2017-03-12T00:51:06.494Z,78.81
2017-03-12T00:52:16.408Z,78.87
2017-03-12T00:53:26.949Z,78.87
2017-03-12T00:54:37.268Z,78.72
2017-03-12T00:55:47.568Z,78.53
2017-03-12T00:56:57.466Z,79
2017-03-12T00:58:07.763Z,78.81
2017-03-12T00:59:18.346Z,78.81
2017-03-12T01:00:28.698Z,78.53
2017-03-12T01:01:38.736Z,78.62
2017-03-12T01:02:48.637Z,78.15
2017-03-12T01:03:58.526Z,78.24
2017-03-12T01:05:09.100Z,78.34
2017-03-12T01:06:19.439Z,78.43
2017-03-12T01:07:29.747Z,78.43
2017-03-12T01:08:40.074Z,78.53
2017-03-12T01:09:50.359Z,77.77
2017-03-12T01:11:00.917Z,78.53
2017-03-12T01:12:11.244Z,78.05
2017-03-12T01:13:21.603Z,78.34
2017-03-12T01:14:31.906Z,78.34
2017-03-12T01:15:42.359Z,77.86
2017-03-12T01:16:52.888Z,77.86
2017-03-12T01:18:03.218Z,77.77
2017-03-12T01:19:13.108Z,77.86
2017-03-12T01:20:23.408Z,78.05
2017-03-12T01:21:33.307Z,78.34
2017-03-12T01:22:43.927Z,78.53
2017-03-12T01:23:54.258Z,78.53
2017-03-12T01:25:04.581Z,78.53
2017-03-12T01:26:14.874Z,78.43
2017-03-12T01:27:25.141Z,78.43
2017-03-12T01:28:35.720Z,78.34
2017-03-12T01:29:46.034Z,78.43
2017-03-12T01:30:56.540Z,77.86
2017-03-12T01:32:06.859Z,77.77
2017-03-12T01:33:17.134Z,78.05
2017-03-12T01:34:27.740Z,78.15
2017-03-12T01:35:38.022Z,77.86
2017-03-12T01:36:47.892Z,77.86
2017-03-12T01:37:57.839Z,77.86
2017-03-12T01:39:08.202Z,77.86
2017-03-12T01:40:18.790Z,78.05
2017-03-12T01:41:28.695Z,78.15
2017-03-12T01:42:39.057Z,78.15
2017-03-12T01:43:49.406Z,78.05
2017-03-12T01:44:59.724Z,78.05
2017-03-12T01:46:10.024Z,78.05
2017-03-12T01:47:20.319Z,77.86
2017-03-12T01:48:30.639Z,77.67
2017-03-12T01:49:40.959Z,77.58
2017-03-12T01:50:51.263Z,77.67
2017-03-12T01:52:01.802Z,77.67
2017-03-12T01:53:11.684Z,77.39
2017-03-12T01:54:22.008Z,77.39
2017-03-12T01:55:32.404Z,77.77
2017-03-12T01:56:42.751Z,77.86
2017-03-12T01:57:52.861Z,77.11
2017-03-12T01:59:02.864Z,77.58
2017-03-12T02:00:13.201Z,77.77
2017-03-12T02:01:23.600Z,77.39
2017-03-12T02:02:33.900Z,77.2
2017-03-12T02:03:44.444Z,77.58
2017-03-12T02:04:54.752Z,76.92
2017-03-12T02:06:05.051Z,77.11
2017-03-12T02:07:15.516Z,77.39
2017-03-12T02:08:25.843Z,77.01
2017-03-12T02:09:36.421Z,77.58
2017-03-12T02:10:46.443Z,76.82
2017-03-12T02:11:56.741Z,77.39
2017-03-12T02:13:07.043Z,76.82
2017-03-12T02:14:17.388Z,76.92
2017-03-12T02:15:27.556Z,76.92
2017-03-12T02:16:37.937Z,77.11
2017-03-12T02:17:48.324Z,77.11
2017-03-12T02:18:58.641Z,76.86
2017-03-12T02:20:08.940Z,76.73
2017-03-12T02:21:19.491Z,76.63
2017-03-12T02:22:29.769Z,76.57
2017-03-12T02:23:40.053Z,76.57
2017-03-12T02:24:50.416Z,76.67
2017-03-12T02:26:00.810Z,76.73
2017-03-12T02:27:11.375Z,76.48
2017-03-12T02:28:21.705Z,76.73
2017-03-12T02:29:31.974Z,76.73
2017-03-12T02:30:42.487Z,76.63
2017-03-12T02:31:52.794Z,76.44
2017-03-12T02:33:03.316Z,76.76
2017-03-12T02:34:13.211Z,76.82
2017-03-12T02:35:23.495Z,76.73
2017-03-12T02:36:33.490Z,76.48
2017-03-12T02:37:43.577Z,76.63
2017-03-12T02:38:54.274Z,76.44
2017-03-12T02:40:04.538Z,76.63
2017-03-12T02:41:14.916Z,76.63
2017-03-12T02:42:25.210Z,76.25
2017-03-12T02:43:35.659Z,76.54
2017-03-12T02:44:46.202Z,76.44
2017-03-12T02:45:56.492Z,76.73
2017-03-12T02:47:06.895Z,76.73
2017-03-12T02:48:17.248Z,76.63
2017-03-12T02:49:27.582Z,76.44
2017-03-12T02:50:38.199Z,76.44
2017-03-12T02:51:48.620Z,76.44
2017-03-12T02:52:58.949Z,76.44
2017-03-12T02:54:08.831Z,76.63
2017-03-12T02:55:19.142Z,76.82
2017-03-12T02:56:29.756Z,76.92
2017-03-12T02:57:40.051Z,77.01
2017-03-12T02:58:50.330Z,77.01
2017-03-12T03:00:00.618Z,77.11
2017-03-12T03:01:10.955Z,76.92
2017-03-12T03:02:21.575Z,76.63
2017-03-12T03:03:31.930Z,77.01
2017-03-12T03:04:42.350Z,77.11
2017-03-12T03:05:52.675Z,77.11
2017-03-12T03:07:02.611Z,77.2
2017-03-12T03:08:13.267Z,77.11
2017-03-12T03:09:23.674Z,77.77
2017-03-12T03:10:34.073Z,77.58
2017-03-12T03:11:44.363Z,77.29
2017-03-12T03:12:54.646Z,77.39
2017-03-12T03:14:05.464Z,77.96
2017-03-12T03:15:15.748Z,77.58
2017-03-12T03:16:26.011Z,77.58
2017-03-12T03:17:36.346Z,77.48
2017-03-12T03:18:46.739Z,77.48
2017-03-12T03:19:56.864Z,77.39
2017-03-12T03:21:06.730Z,77.58
2017-03-12T03:22:17.030Z,77.48
2017-03-12T03:23:27.399Z,77.67
2017-03-12T03:24:37.661Z,77.48
2017-03-12T03:25:48.240Z,77.67
2017-03-12T03:26:58.531Z,77.48
2017-03-12T03:28:08.442Z,77.67
2017-03-12T03:29:18.740Z,77.48
2017-03-12T03:30:28.680Z,77.86
2017-03-12T03:31:39.297Z,77.96
2017-03-12T03:32:49.202Z,77.77
2017-03-12T03:33:59.479Z,77.77
2017-03-12T03:35:09.760Z,77.96
2017-03-12T03:36:19.628Z,77.86
2017-03-12T03:37:30.226Z,77.58
2017-03-12T03:38:40.575Z,77.58
2017-03-12T03:39:50.545Z,77.86
2017-03-12T03:41:00.007Z,77.67
2017-03-12T03:42:10.285Z,77.86
2017-03-12T03:43:20.440Z,77.48
2017-03-12T03:44:30.730Z,77.86
2017-03-12T03:45:41.027Z,77.67
2017-03-12T03:46:50.919Z,77.67
2017-03-12T03:48:01.335Z,77.86
2017-03-12T03:49:11.487Z,77.96
2017-03-12T03:50:21.003Z,77.96
2017-03-12T03:51:31.363Z,77.86
2017-03-12T03:52:41.763Z,77.86
2017-03-12T03:53:52.102Z,78.15
2017-03-12T03:55:02.664Z,77.86
2017-03-12T03:56:13.032Z,77.58
2017-03-12T03:57:23.344Z,77.58
2017-03-12T03:58:33.706Z,77.39
2017-03-12T03:59:43.985Z,77.39
2017-03-12T04:00:54.529Z,77.77
2017-03-12T04:02:04.799Z,77.77
2017-03-12T04:03:14.676Z,77.67
2017-03-12T04:04:25.054Z,77.48
2017-03-12T04:05:35.379Z,77.67
2017-03-12T04:06:45.889Z,77.39
2017-03-12T04:07:56.233Z,77.39
2017-03-12T04:09:06.536Z,77.67
2017-03-12T04:10:16.440Z,77.58
2017-03-12T04:11:26.752Z,77.77
2017-03-12T04:12:37.397Z,77.48
2017-03-12T04:13:47.764Z,77.39
2017-03-12T04:14:58.081Z,78.05
2017-03-12T04:16:08.345Z,77.11
2017-03-12T04:17:18.731Z,76.63
2017-03-12T04:18:29.311Z,76.25
2017-03-12T04:19:39.620Z,76.34
2017-03-12T04:20:50.005Z,76.06
2017-03-12T04:22:00.275Z,76.44
2017-03-12T04:23:10.019Z,76.4
2017-03-12T04:24:20.563Z,75.55
2017-03-12T04:25:30.852Z,75.45
2017-03-12T04:26:41.170Z,75.74
2017-03-12T04:27:51.605Z,75.93
2017-03-12T04:29:01.873Z,75.55
2017-03-12T04:30:12.427Z,75.64
2017-03-12T04:31:22.696Z,75.64
2017-03-12T04:32:32.987Z,75.64
2017-03-12T04:33:43.280Z,75.74
2017-03-12T04:34:53.650Z,75.36
2017-03-12T04:36:04.175Z,75.74
2017-03-12T04:37:14.144Z,76.03
2017-03-12T04:38:24.118Z,76.31
2017-03-12T04:39:34.399Z,75.74
2017-03-12T04:40:44.309Z,75.74
2017-03-12T04:41:54.814Z,75.64
2017-03-12T04:43:05.209Z,75.74
2017-03-12T04:44:15.104Z,75.74
2017-03-12T04:45:25.463Z,76.03
2017-03-12T04:46:35.720Z,76.21
2017-03-12T04:47:46.470Z,76.31
2017-03-12T04:48:56.842Z,76.31
2017-03-12T04:50:07.295Z,76.21
2017-03-12T04:51:17.781Z,76.59
2017-03-12T04:52:28.166Z,76.4
2017-03-12T04:53:38.696Z,76.31
2017-03-12T04:54:49.062Z,76.4
2017-03-12T04:55:59.397Z,76.78
2017-03-12T04:57:09.770Z,76.97
2017-03-12T04:58:20.071Z,76.87
2017-03-12T04:59:30.599Z,77.06
2017-03-12T05:00:40.885Z,77.73
2017-03-12T05:01:51.206Z,77.92
2017-03-12T05:03:01.216Z,77.64
2017-03-12T05:04:11.505Z,77.25
2017-03-12T05:05:22.085Z,77.64
2017-03-12T05:06:32.395Z,77.64
2017-03-12T05:07:42.292Z,77.83
2017-03-12T05:08:52.592Z,77.45
2017-03-12T05:10:02.487Z,77.54
2017-03-12T05:11:12.602Z,77.83
2017-03-12T05:12:22.882Z,77.64
2017-03-12T05:13:33.210Z,77.45
2017-03-12T05:14:43.724Z,77.73
2017-03-12T05:15:54.373Z,77.92
2017-03-12T05:17:04.919Z,77.25
2017-03-12T05:18:14.774Z,77.83
2017-03-12T05:19:25.051Z,77.83
2017-03-12T05:20:35.370Z,77.64
2017-03-12T05:21:45.643Z,77.83
2017-03-12T05:22:55.824Z,77.16
2017-03-12T05:24:06.109Z,77.54
2017-03-12T05:25:16.367Z,77.16
2017-03-12T05:26:26.650Z,76.87
2017-03-12T05:27:37.002Z,76.78
2017-03-12T05:28:47.600Z,76.78
2017-03-12T05:29:57.861Z,77.35
2017-03-12T05:31:08.136Z,77.54
2017-03-12T05:32:18.401Z,76.78
2017-03-12T05:33:28.676Z,77.16
2017-03-12T05:34:39.251Z,77.35
2017-03-12T05:35:49.550Z,77.16
2017-03-12T05:36:59.881Z,77.35
2017-03-12T05:38:09.752Z,76.5
2017-03-12T05:39:20.046Z,76.21
2017-03-12T05:40:30.886Z,75.93
2017-03-12T05:41:41.178Z,75.93
2017-03-12T05:42:51.435Z,75.84
2017-03-12T05:44:01.742Z,75.55
2017-03-12T05:45:12.075Z,75.93
2017-03-12T05:46:22.212Z,75.84
2017-03-12T05:47:32.552Z,75.55
2017-03-12T05:48:42.826Z,74.98
2017-03-12T05:49:52.742Z,75.17
2017-03-12T05:51:02.602Z,75.17
2017-03-12T05:52:13.211Z,74.98
2017-03-12T05:53:23.830Z,75.45
2017-03-12T05:54:33.801Z,75.26
2017-03-12T05:55:44.125Z,75.84
2017-03-12T05:56:54.004Z,75.84
2017-03-12T05:58:04.180Z,75.55
2017-03-12T05:59:14.524Z,75.55
2017-03-12T06:00:24.821Z,75.26
2017-03-12T06:01:35.240Z,75.93
2017-03-12T06:02:45.550Z,75.36
2017-03-12T06:03:56.118Z,75.84
2017-03-12T06:05:06.399Z,75.74
2017-03-12T06:06:16.671Z,75.26
2017-03-12T06:07:27.076Z,74.98
2017-03-12T06:08:37.417Z,75.17
2017-03-12T06:09:47.750Z,75.17
2017-03-12T06:10:58.066Z,75.07
2017-03-12T06:12:08.401Z,75.07
2017-03-12T06:13:18.730Z,74.51
2017-03-12T06:14:29.056Z,74.41
2017-03-12T06:15:39.592Z,74.69
2017-03-12T06:16:49.906Z,74.79
2017-03-12T06:17:59.791Z,75.07
2017-03-12T06:19:10.096Z,75.26
2017-03-12T06:20:20.437Z,75.45
2017-03-12T06:21:30.579Z,75.64
2017-03-12T06:22:40.908Z,75.45
2017-03-12T06:23:51.225Z,75.49
2017-03-12T06:25:01.531Z,75.59
2017-03-12T06:26:11.911Z,75.68
2017-03-12T06:27:22.446Z,75.68
2017-03-12T06:28:32.732Z,75.87
2017-03-12T06:29:42.646Z,75.4
2017-03-12T06:30:52.973Z,74.83
2017-03-12T06:32:03.417Z,74.83
2017-03-12T06:33:13.961Z,74.54
2017-03-12T06:34:24.215Z,74.92
2017-03-12T06:35:34.098Z,74.54
2017-03-12T06:36:44.379Z,74.64
2017-03-12T06:37:54.756Z,74.07
2017-03-12T06:39:05.362Z,74.16
2017-03-12T06:40:15.639Z,74.26
2017-03-12T06:41:25.953Z,74.35
2017-03-12T06:42:36.260Z,74.45
2017-03-12T06:43:46.206Z,74.16
2017-03-12T06:44:56.414Z,74.07
2017-03-12T06:46:06.744Z,74.07
2017-03-12T06:47:17.066Z,73.97
2017-03-12T06:48:27.199Z,74.35
2017-03-12T06:49:37.568Z,73.63
2017-03-12T06:50:48.287Z,73.92
2017-03-12T06:51:58.549Z,73.92
2017-03-12T06:53:08.869Z,73.63
2017-03-12T06:54:18.758Z,73.92
2017-03-12T06:55:29.043Z,73.25
2017-03-12T06:56:39.602Z,73.25
2017-03-12T06:57:49.915Z,73.16
2017-03-12T06:58:59.876Z,73.07
2017-03-12T07:00:09.879Z,73.16
2017-03-12T07:01:20.265Z,73.07
2017-03-12T07:02:30.822Z,72.59
2017-03-12T07:03:40.732Z,72.97
2017-03-12T07:04:51.044Z,72.78
2017-03-12T07:06:01.337Z,72.97
2017-03-12T07:07:11.611Z,72.4
2017-03-12T07:08:22.033Z,72.59
2017-03-12T07:09:31.909Z,72.49
2017-03-12T07:10:42.307Z,72.11
2017-03-12T07:11:52.613Z,72.02
2017-03-12T07:13:02.473Z,71.55
2017-03-12T07:14:13.045Z,71.26
2017-03-12T07:15:23.364Z,71.73
2017-03-12T07:16:33.699Z,71.55
2017-03-12T07:17:43.984Z,71.26
2017-03-12T07:18:54.344Z,71.3
2017-03-12T07:20:05.064Z,71.26
2017-03-12T07:21:15.442Z,71.26
2017-03-12T07:22:25.710Z,71.26
2017-03-12T07:23:36.005Z,71.55
2017-03-12T07:24:45.912Z,71.36
2017-03-12T07:25:56.461Z,71.07
2017-03-12T07:27:06.817Z,71.26
2017-03-12T07:28:17.141Z,71.36
2017-03-12T07:29:27.507Z,70.88
2017-03-12T07:30:37.847Z,71.36
2017-03-12T07:31:48.377Z,71.17
2017-03-12T07:32:58.675Z,71.39
2017-03-12T07:34:08.189Z,71.01
2017-03-12T07:35:18.499Z,71.39
2017-03-12T07:36:28.839Z,70.73
2017-03-12T07:37:39.404Z,70.82
2017-03-12T07:38:49.674Z,70.35
2017-03-12T07:39:59.546Z,70.25
2017-03-12T07:41:09.817Z,69.78
2017-03-12T07:42:20.117Z,69.87
2017-03-12T07:43:30.686Z,69.96
2017-03-12T07:44:41.044Z,69.87
2017-03-12T07:45:51.462Z,69.53
2017-03-12T07:47:01.454Z,69.91
2017-03-12T07:48:11.826Z,69.34
2017-03-12T07:49:22.372Z,69.34
2017-03-12T07:50:32.700Z,69.34
2017-03-12T07:51:42.995Z,68.96
2017-03-12T07:52:53.322Z,68.86
2017-03-12T07:54:03.624Z,68.77
2017-03-12T07:55:14.286Z,68.58
2017-03-12T07:56:24.595Z,68.19
2017-03-12T07:57:34.879Z,68.48
2017-03-12T07:58:45.150Z,68.29
2017-03-12T07:59:56.179Z,67.82
2017-03-12T08:01:07.549Z,67.47
2017-03-12T08:02:18.054Z,66.9
2017-03-12T08:03:29.185Z,66.55
2017-03-12T08:04:39.460Z,66.84
2017-03-12T08:05:49.822Z,66.46
2017-03-12T08:07:00.491Z,66.36
2017-03-12T08:08:10.911Z,66.36
2017-03-12T08:09:21.284Z,66.36
2017-03-12T08:10:31.711Z,66.17
2017-03-12T08:11:42.059Z,66.08
2017-03-12T08:12:52.638Z,66.08
2017-03-12T08:14:02.927Z,65.7
2017-03-12T08:15:13.225Z,65.32
2017-03-12T08:16:23.519Z,65.7
2017-03-12T08:17:33.935Z,65.7
2017-03-12T08:18:44.537Z,65.54
2017-03-12T08:19:54.904Z,65.45
2017-03-12T08:21:05.246Z,64.97
2017-03-12T08:22:15.531Z,65.16
2017-03-12T08:23:25.523Z,64.69
2017-03-12T08:24:36.122Z,64.94
2017-03-12T08:25:46.003Z,64.75
2017-03-12T08:26:57.399Z,64.78
2017-03-12T08:28:08.512Z,64.69
2017-03-12T08:29:19.605Z,64.21
2017-03-12T08:30:31.119Z,64.21
2017-03-12T08:31:42.141Z,64.02
2017-03-12T08:32:53.198Z,63.57
2017-03-12T08:34:04.314Z,63.01
2017-03-12T08:35:15.361Z,62.81
2017-03-12T08:36:26.733Z,62.81
2017-03-12T08:37:37.974Z,63.1
2017-03-12T08:38:49.298Z,62.08
2017-03-12T08:40:00.352Z,61.61
2017-03-12T08:41:11.414Z,60.94
2017-03-12T08:42:21.787Z,59.57
2017-03-12T08:43:32.881Z,58.75
2017-03-12T08:44:44.049Z,57.79
2017-03-12T08:45:54.666Z,57.89
2017-03-12T08:47:05.754Z,57.63
2017-03-12T08:48:17.132Z,57.06
2017-03-12T08:49:28.218Z,56.38
2017-03-12T08:50:39.357Z,54.99
2017-03-12T08:51:50.397Z,54.53
2017-03-12T08:53:01.449Z,53.13
2017-03-12T08:54:12.844Z,52.29
2017-03-12T08:55:23.469Z,52.01
2017-03-12T08:56:34.502Z,50.76
2017-03-12T08:57:45.617Z,49.8
2017-03-12T08:58:56.676Z,48.78
2017-03-12T09:00:08.031Z,47.47
2017-03-12T09:01:18.667Z,47.75
2017-03-12T09:02:29.823Z,45.86
2017-03-12T09:03:41.001Z,45.38
2017-03-12T09:04:52.176Z,44.59
2017-03-12T09:06:02.646Z,44.4
2017-03-12T09:07:13.350Z,44.31
2017-03-12T09:08:24.027Z,43.27
2017-03-12T09:09:34.653Z,43.66
2017-03-12T09:10:45.285Z,43.16
2017-03-12T09:11:56.572Z,43.14
2017-03-12T09:13:07.625Z,43.3
2017-03-12T09:14:18.708Z,42.73
2017-03-12T09:15:29.824Z,42.83
2017-03-12T09:16:40.493Z,43.21
2017-03-12T09:17:51.533Z,42.93
2017-03-12T09:19:02.557Z,43.19
2017-03-12T09:20:13.613Z,43.38
2017-03-12T09:21:24.172Z,43.57
2017-03-12T09:22:35.208Z,43.95
2017-03-12T09:23:46.608Z,43.57
2017-03-12T09:24:57.694Z,43.69
2017-03-12T09:26:08.237Z,43.12
2017-03-12T09:27:19.324Z,43.21
2017-03-12T09:28:30.442Z,42.54
2017-03-12T09:29:41.761Z,41.99
2017-03-12T09:30:52.914Z,40.69
2017-03-12T09:32:04.003Z,39.08
2017-03-12T09:33:15.195Z,38.16
2017-03-12T09:34:26.389Z,36.55
2017-03-12T09:35:37.708Z,35.3
2017-03-12T09:36:48.779Z,35.42
2017-03-12T09:37:59.872Z,35.21
2017-03-12T09:39:10.942Z,35.21
2017-03-12T09:40:21.994Z,35.28
2017-03-12T09:41:33.454Z,34.9
2017-03-12T09:42:44.513Z,34.71
2017-03-12T09:43:55.586Z,35.27
2017-03-12T09:45:06.654Z,35.1
2017-03-12T09:46:17.150Z,34.81
2017-03-12T09:47:28.561Z,34.92
2017-03-12T09:48:39.633Z,34.73
2017-03-12T09:49:50.714Z,34.07
2017-03-12T09:51:01.826Z,33.31
2017-03-12T09:52:12.881Z,33.31
2017-03-12T09:53:24.382Z,32.9
2017-03-12T09:54:35.413Z,33.27
2017-03-12T09:55:46.518Z,34.41
2017-03-12T09:56:57.538Z,35.04
2017-03-12T09:58:07.900Z,35.79
2017-03-12T09:59:18.205Z,36.35
2017-03-12T10:00:28.138Z,36.61
2017-03-12T10:01:38.454Z,37.19
2017-03-12T10:02:48.846Z,37.53
2017-03-12T10:03:59.128Z,39.23
2017-03-12T10:05:09.339Z,39.23
2017-03-12T10:06:19.778Z,39.52
2017-03-12T10:07:30.095Z,39.78
2017-03-12T10:08:40.121Z,40.17
2017-03-12T10:09:50.488Z,40.24
2017-03-12T10:11:01.057Z,41.1
2017-03-12T10:12:11.399Z,41
2017-03-12T10:13:21.733Z,41.48
2017-03-12T10:14:32.078Z,42.05
2017-03-12T10:15:42.427Z,41.86
2017-03-12T10:16:53.015Z,41.77
2017-03-12T10:18:03.349Z,41.39
2017-03-12T10:19:13.726Z,41.77
2017-03-12T10:20:24.087Z,41.48
2017-03-12T10:21:34.440Z,41.67
2017-03-12T10:22:45.035Z,41.96
2017-03-12T10:23:55.389Z,41.77
2017-03-12T10:25:05.743Z,41.77
2017-03-12T10:26:16.070Z,42.15
2017-03-12T10:27:26.419Z,42.44
2017-03-12T10:28:37.179Z,41.86
2017-03-12T10:29:47.542Z,41.77
2017-03-12T10:30:57.463Z,41.58
2017-03-12T10:32:07.868Z,41.46
2017-03-12T10:33:17.793Z,41.46
2017-03-12T10:34:27.954Z,41.84
2017-03-12T10:35:38.251Z,41.84
2017-03-12T10:36:48.294Z,41.39
2017-03-12T10:37:58.588Z,40.91
2017-03-12T10:39:09.027Z,40.63
2017-03-12T10:40:19.735Z,40.64
2017-03-12T10:41:30.018Z,40.19
2017-03-12T10:42:40.319Z,39.52
2017-03-12T10:43:51.366Z,39.15
2017-03-12T10:45:02.051Z,38.96
2017-03-12T10:46:13.086Z,38.03
2017-03-12T10:47:24.186Z,36.71
2017-03-12T10:48:35.256Z,36.15
2017-03-12T10:49:46.384Z,35.98
2017-03-12T10:50:57.430Z,35.41
2017-03-12T10:52:08.747Z,33.8
2017-03-12T10:53:19.825Z,33.22
2017-03-12T10:54:30.533Z,32.75
2017-03-12T10:55:41.598Z,32.95
2017-03-12T10:56:52.698Z,33.24
2017-03-12T10:58:04.016Z,32.57
2017-03-12T10:59:15.104Z,32.57
2017-03-12T11:00:26.456Z,32.67
2017-03-12T11:01:37.091Z,31.8
2017-03-12T11:02:48.180Z,31.8
2017-03-12T11:03:59.655Z,31.05
2017-03-12T11:05:10.462Z,30.86
2017-03-12T11:06:21.555Z,31.24
2017-03-12T11:07:32.213Z,31.71
2017-03-12T11:08:42.919Z,32.17
2017-03-12T11:09:54.302Z,32.26
2017-03-12T11:11:04.971Z,31.98
2017-03-12T11:12:15.613Z,31.3
2017-03-12T11:13:26.956Z,30.83
2017-03-12T11:14:38.114Z,31.21
2017-03-12T11:15:49.551Z,30.81
2017-03-12T11:17:00.728Z,31.67
2017-03-12T11:18:11.886Z,32.04
2017-03-12T11:19:22.951Z,32.7
2017-03-12T11:20:34.062Z,33.07
2017-03-12T11:21:45.620Z,33.07
2017-03-12T11:22:56.317Z,33.07
2017-03-12T11:24:07.400Z,32.98
2017-03-12T11:25:18.470Z,33
2017-03-12T11:26:29.620Z,33.38
2017-03-12T11:27:41.152Z,33.38
2017-03-12T11:28:52.286Z,33.09
2017-03-12T11:30:03.368Z,33
2017-03-12T11:31:14.466Z,33.09
2017-03-12T11:32:24.791Z,33.28
2017-03-12T11:33:35.397Z,33.38
2017-03-12T11:34:45.741Z,33.46
2017-03-12T11:35:56.050Z,33.84
2017-03-12T11:37:06.445Z,33.92
2017-03-12T11:38:16.765Z,34.3
2017-03-12T11:39:27.368Z,34.67
2017-03-12T11:40:37.734Z,34.77
2017-03-12T11:41:48.106Z,35.62
2017-03-12T11:42:58.133Z,35.99
2017-03-12T11:44:08.477Z,35.89
2017-03-12T11:45:19.171Z,36.08
2017-03-12T11:46:29.539Z,36.35
2017-03-12T11:47:39.904Z,36.54
2017-03-12T11:48:49.883Z,36.83
2017-03-12T11:50:00.284Z,36.83
2017-03-12T11:51:10.850Z,37.68
2017-03-12T11:52:21.162Z,37.78
2017-03-12T11:53:31.516Z,37.59
2017-03-12T11:54:41.859Z,37.97
2017-03-12T11:55:52.195Z,38.07
2017-03-12T11:57:02.821Z,37.3
2017-03-12T11:58:13.133Z,37.3
2017-03-12T11:59:23.439Z,37.4
2017-03-12T12:00:33.814Z,37.12
2017-03-12T12:01:44.154Z,37.49
2017-03-12T12:02:54.827Z,37.4
2017-03-12T12:04:04.744Z,37.48
2017-03-12T12:05:15.101Z,37.48
2017-03-12T12:06:25.431Z,38.15
2017-03-12T12:07:35.342Z,38.43
2017-03-12T12:08:45.970Z,38.62
2017-03-12T12:09:56.321Z,39.19
2017-03-12T12:11:06.284Z,39.17
2017-03-12T12:12:16.606Z,39.46
2017-03-12T12:13:26.905Z,39.36
2017-03-12T12:14:37.528Z,39.36
2017-03-12T12:15:47.915Z,39.48
2017-03-12T12:16:58.274Z,39.1
2017-03-12T12:18:08.594Z,38.24
2017-03-12T12:19:18.941Z,38.24
2017-03-12T12:20:29.584Z,38.32
2017-03-12T12:21:39.933Z,38.6
2017-03-12T12:22:50.301Z,38.81
2017-03-12T12:24:00.606Z,38.71
2017-03-12T12:25:11.047Z,39.19
2017-03-12T12:26:21.627Z,39
2017-03-12T12:27:32.003Z,39.39
2017-03-12T12:28:42.333Z,39.58
2017-03-12T12:29:52.653Z,39.95
2017-03-12T12:31:03.070Z,40.15
2017-03-12T12:32:13.652Z,40.05
2017-03-12T12:33:23.563Z,39.76
2017-03-12T12:34:33.963Z,39.58
2017-03-12T12:35:44.289Z,39.48
2017-03-12T12:36:54.651Z,40.05
2017-03-12T12:38:05.214Z,39.48
2017-03-12T12:39:15.526Z,39.1
2017-03-12T12:40:25.093Z,38.81
2017-03-12T12:41:35.567Z,38.81
2017-03-12T12:42:45.895Z,39.1
2017-03-12T12:43:56.263Z,39.17
2017-03-12T12:45:06.686Z,39.29
2017-03-12T12:46:16.982Z,39.58
2017-03-12T12:47:27.441Z,39.29
2017-03-12T12:48:37.805Z,39
2017-03-12T12:49:48.436Z,39.19
2017-03-12T12:50:58.821Z,39.17
2017-03-12T12:52:09.320Z,38.98
2017-03-12T12:53:19.649Z,39.1
2017-03-12T12:54:30.026Z,38.7
2017-03-12T12:55:40.631Z,38.98
2017-03-12T12:56:50.537Z,38.89
2017-03-12T12:58:00.844Z,39.46
2017-03-12T12:59:11.199Z,39.46
2017-03-12T13:00:21.511Z,40.03
2017-03-12T13:01:32.101Z,39.36
2017-03-12T13:02:42.443Z,38.98
2017-03-12T13:03:52.809Z,38.98
2017-03-12T13:05:03.307Z,39.08
2017-03-12T13:06:13.605Z,39.17
2017-03-12T13:07:23.793Z,39.27
2017-03-12T13:08:34.116Z,39.65
2017-03-12T13:09:44.425Z,39.67
2017-03-12T13:10:54.808Z,39.95
2017-03-12T13:12:04.753Z,40.32
2017-03-12T13:13:15.355Z,40.72
2017-03-12T13:14:25.735Z,40.51
2017-03-12T13:15:36.052Z,40.81
2017-03-12T13:16:46.474Z,41
2017-03-12T13:17:56.809Z,40.91
2017-03-12T13:19:07.506Z,41
2017-03-12T13:20:17.875Z,40.24
2017-03-12T13:21:28.226Z,40.63
2017-03-12T13:22:38.550Z,40.05
2017-03-12T13:23:48.867Z,40.53
2017-03-12T13:24:59.481Z,40.53
2017-03-12T13:26:09.853Z,40.81
2017-03-12T13:27:19.782Z,40.63
2017-03-12T13:28:30.271Z,40.44
2017-03-12T13:29:40.203Z,40.44
2017-03-12T13:30:50.442Z,40.44
2017-03-12T13:32:01.016Z,40.44
2017-03-12T13:33:11.013Z,40.32
2017-03-12T13:34:21.328Z,40.8
2017-03-12T13:35:31.669Z,41.08
2017-03-12T13:36:42.214Z,41.75
2017-03-12T13:37:52.632Z,41.94
2017-03-12T13:39:02.960Z,41.84
2017-03-12T13:40:13.349Z,41.46
2017-03-12T13:41:23.672Z,40.99
2017-03-12T13:42:34.307Z,40.89
2017-03-12T13:43:44.677Z,40.87
2017-03-12T13:44:55.036Z,40.97
2017-03-12T13:46:05.393Z,41.44
2017-03-12T13:47:15.760Z,41.06
2017-03-12T13:48:25.968Z,41.35
2017-03-12T13:49:36.297Z,40.87
2017-03-12T13:50:46.666Z,41.35
2017-03-12T13:51:57.024Z,41.53
2017-03-12T13:53:07.559Z,41.63
2017-03-12T13:54:18.073Z,41.72
2017-03-12T13:55:28.392Z,42.4
2017-03-12T13:56:38.776Z,42.11
2017-03-12T13:57:49.145Z,42.3
2017-03-12T13:58:59.521Z,42.4
2017-03-12T14:00:10.119Z,42.01
2017-03-12T14:01:20.092Z,41.82
2017-03-12T14:02:30.486Z,41.92
2017-03-12T14:03:40.870Z,41.75
2017-03-12T14:04:50.806Z,41.75
2017-03-12T14:06:01.419Z,42.22
2017-03-12T14:07:11.936Z,41.84
2017-03-12T14:08:22.387Z,41.56
2017-03-12T14:09:32.683Z,41.94
2017-03-12T14:10:43.107Z,42.22
2017-03-12T14:11:53.322Z,42.03
2017-03-12T14:13:03.647Z,41.94
2017-03-12T14:14:13.985Z,42.32
2017-03-12T14:15:24.353Z,42.03
2017-03-12T14:16:34.715Z,42.51
2017-03-12T14:17:45.353Z,42.51
2017-03-12T14:18:55.655Z,41.94
2017-03-12T14:20:05.992Z,41.84
2017-03-12T14:21:16.571Z,41.84
2017-03-12T14:22:26.930Z,42.03
2017-03-12T14:23:37.631Z,41.56
2017-03-12T14:24:48.031Z,41.84
2017-03-12T14:25:58.342Z,42.41
2017-03-12T14:27:09.124Z,42.6
2017-03-12T14:28:19.462Z,42.58
2017-03-12T14:29:30.185Z,42.49
2017-03-12T14:30:40.556Z,42.01
2017-03-12T14:31:50.959Z,42.49
2017-03-12T14:33:01.382Z,42.4
2017-03-12T14:34:11.442Z,42.4
2017-03-12T14:35:22.153Z,42.4
2017-03-12T14:36:32.726Z,42.58
2017-03-12T14:37:43.210Z,42.2
2017-03-12T14:38:53.555Z,42.49
2017-03-12T14:40:03.970Z,42.4
2017-03-12T14:41:14.629Z,42.49
2017-03-12T14:42:24.583Z,42.58
2017-03-12T14:43:34.941Z,42.7
2017-03-12T14:44:45.478Z,42.51
2017-03-12T14:45:55.900Z,42.51
2017-03-12T14:47:06.531Z,42.51
2017-03-12T14:48:16.887Z,42.22
2017-03-12T14:49:27.236Z,42.58
2017-03-12T14:50:37.215Z,42.22
2017-03-12T14:51:47.646Z,42.4
2017-03-12T14:52:58.233Z,42.58
2017-03-12T14:54:08.226Z,42.87
2017-03-12T14:55:18.654Z,42.68
2017-03-12T14:56:29.112Z,42.68
2017-03-12T14:57:39.509Z,43.06
2017-03-12T14:58:50.138Z,43.63
2017-03-12T15:00:00.466Z,43.46
2017-03-12T15:01:10.847Z,42.99
2017-03-12T15:02:21.208Z,43.08
2017-03-12T15:03:31.554Z,42.96
2017-03-12T15:04:42.185Z,43.37
2017-03-12T15:05:52.532Z,43.37
2017-03-12T15:07:02.573Z,42.99
2017-03-12T15:08:12.486Z,42.6
2017-03-12T15:09:22.809Z,42.89
2017-03-12T15:10:33.377Z,42.7